Time;durP1;ratioP1;P1;durP2;ratioP2;P2;SDS_P1;SDS_P2;PMS_P1;PMS_P2;Temp;Humidity;BMP_temperature;BMP_pressure;BME280_temperature;BME280_humidity;BME280_pressure;Samples;Min_cycle;Max_cycle;Signal;HPM_P1;HPM_P2
2023/06/26 00:01:50;;;;;;;6.30;5.63;;;18.80;99.90;;;;;;5058338;28;20265;-75
2023/06/26 00:04:16;;;;;;;6.05;5.55;;;18.90;99.90;;;;;;5056068;28;20186;-75
2023/06/26 00:06:42;;;;;;;6.10;5.60;;;18.90;99.90;;;;;;5047549;28;20478;-79
2023/06/26 00:09:08;;;;;;;5.85;5.35;;;18.50;1.00;;;;;;5053880;28;20680;-75
2023/06/26 00:11:33;;;;;;;6.50;5.70;;;18.60;1.00;;;;;;5058609;28;20189;-75
2023/06/26 00:14:00;;;;;;;5.40;5.00;;;18.60;1.00;;;;;;5057734;28;20215;-75
2023/06/26 00:16:26;;;;;;;5.70;5.30;;;18.60;1.00;;;;;;5054954;28;20545;-75
2023/06/26 00:18:53;;;;;;;6.20;5.70;;;18.60;1.00;;;;;;5056737;28;20581;-75
2023/06/26 00:21:19;;;;;;;6.53;5.72;;;18.60;1.00;;;;;;5049157;28;20186;-75
2023/06/26 00:23:45;;;;;;;6.18;5.65;;;18.50;1.00;;;;;;5055155;28;20194;-77
2023/06/26 00:26:11;;;;;;;6.28;5.70;;;18.60;1.00;;;;;;5049046;28;20225;-77
2023/06/26 00:28:37;;;;;;;5.80;4.80;;;18.50;1.00;;;;;;5053656;28;20614;-76
2023/06/26 00:31:04;;;;;;;5.90;5.40;;;18.50;99.90;;;;;;5061594;28;20178;-75
2023/06/26 00:33:30;;;;;;;6.00;5.50;;;18.50;99.90;;;;;;5053708;28;20210;-76
2023/06/26 00:35:55;;;;;;;6.03;5.50;;;18.50;99.90;;;;;;5036323;28;20696;-76
2023/06/26 00:38:21;;;;;;;6.57;5.80;;;18.50;99.90;;;;;;5053272;28;20186;-75
2023/06/26 00:40:46;;;;;;;6.43;5.88;;;18.40;99.90;;;;;;5050247;28;20216;-75
2023/06/26 00:43:12;;;;;;;6.22;5.72;;;18.50;1.00;;;;;;5059024;28;20190;-75
2023/06/26 00:45:38;;;;;;;6.35;5.72;;;18.40;1.00;;;;;;5044723;28;20210;-75
2023/06/26 00:48:04;;;;;;;7.15;6.53;;;18.30;1.00;;;;;;5051969;28;20198;-76
2023/06/26 00:50:30;;;;;;;5.88;5.38;;;18.30;1.00;;;;;;5056675;28;20213;-76
2023/06/26 00:53:00;;;;;;;6.75;5.97;;;18.30;1.00;;;;;;5052471;28;20229;-76
2023/06/26 00:55:29;;;;;;;6.63;6.00;;;18.20;1.00;;;;;;5054526;28;20181;-76
2023/06/26 00:57:55;;;;;;;8.35;6.47;;;18.20;99.90;;;;;;5057011;28;20365;-75
2023/06/26 01:00:21;;;;;;;6.20;5.70;;;18.20;99.90;;;;;;5057389;28;20227;-75
2023/06/26 01:02:47;;;;;;;6.40;5.72;;;18.20;65.60;;;;;;5051389;28;20189;-76
2023/06/26 01:05:20;;;;;;;6.45;5.85;;;18.30;1.00;;;;;;5045213;28;20602;-75
2023/06/26 01:07:48;;;;;;;6.57;5.57;;;18.30;1.00;;;;;;5033510;28;20309;-76
2023/06/26 01:10:14;;;;;;;6.50;5.65;;;18.20;1.00;;;;;;5051785;28;20188;-74
2023/06/26 01:12:40;;;;;;;6.75;5.93;;;18.30;1.00;;;;;;5049003;28;20189;-76
2023/06/26 01:15:07;;;;;;;6.35;5.75;;;18.20;1.00;;;;;;5052682;28;20617;-74
2023/06/26 01:17:33;;;;;;;5.63;5.13;;;18.20;1.00;;;;;;5050290;28;20459;-76
2023/06/26 01:20:08;;;;;;;6.30;5.47;;;18.20;1.00;;;;;;5055830;28;20197;-75
2023/06/26 01:22:33;;;;;;;6.50;5.90;;;18.20;1.00;;;;;;5056120;28;20173;-75
2023/06/26 01:25:09;;;;;;;7.53;5.97;;;18.20;1.00;;;;;;5060187;28;20181;-75
2023/06/26 01:27:35;;;;;;;6.55;5.88;;;18.10;1.00;;;;;;5051949;28;20228;-75
2023/06/26 01:30:04;;;;;;;6.15;5.55;;;18.10;1.00;;;;;;5058713;28;20184;-75
2023/06/26 01:32:31;;;;;;;6.72;6.05;;;18.00;1.00;;;;;;5054077;28;20189;-75
2023/06/26 01:34:59;;;;;;;7.18;6.25;;;18.10;1.00;;;;;;5059412;28;20654;-74
2023/06/26 01:37:25;;;;;;;6.55;5.38;;;18.10;1.00;;;;;;5054813;28;20202;-76
2023/06/26 01:39:50;;;;;;;6.70;6.00;;;18.10;1.00;;;;;;5060898;28;20186;-75
2023/06/26 01:42:16;;;;;;;6.35;5.78;;;18.00;1.00;;;;;;5054379;28;20221;-76
2023/06/26 01:44:46;;;;;;;6.72;6.03;;;18.00;1.00;;;;;;5033438;28;20273;-76
2023/06/26 01:47:20;;;;;;;6.78;6.13;;;18.00;1.00;;;;;;5061814;28;20205;-76
2023/06/26 01:50:12;;;;;;;6.90;6.20;;;18.00;1.00;;;;;;5043998;28;20641;-76
2023/06/26 01:52:44;;;;;;;6.88;6.28;;;18.00;1.00;;;;;;5054939;28;20189;-77
2023/06/26 01:55:35;;;;;;;6.68;6.07;;;18.00;1.00;;;;;;5052973;28;20186;-75
2023/06/26 01:58:02;;;;;;;7.03;6.32;;;18.00;1.00;;;;;;5052876;28;20181;-75
2023/06/26 02:00:28;;;;;;;8.10;7.20;;;18.00;1.00;;;;;;5054790;28;20888;-77
2023/06/26 02:02:54;;;;;;;7.30;6.60;;;17.90;1.00;;;;;;5057255;28;20208;-75
2023/06/26 02:05:20;;;;;;;11.15;7.47;;;17.90;1.00;;;;;;5061024;28;20189;-77
2023/06/26 02:07:45;;;;;;;8.80;7.47;;;18.00;1.00;;;;;;5059350;28;20213;-74
2023/06/26 02:10:11;;;;;;;8.18;6.97;;;18.00;1.00;;;;;;5066920;28;20642;-76
2023/06/26 02:12:37;;;;;;;9.38;7.43;;;17.90;1.00;;;;;;5064629;28;20178;-75
2023/06/26 02:15:04;;;;;;;9.93;7.90;;;17.90;1.00;;;;;;5060091;28;20221;-75
2023/06/26 02:17:30;;;;;;;10.00;7.25;;;17.90;1.00;;;;;;5058926;28;20209;-76
2023/06/26 02:19:55;;;;;;;8.38;6.80;;;17.80;1.00;;;;;;5052180;28;20186;-75
2023/06/26 02:22:21;;;;;;;9.13;7.13;;;17.80;12.50;;;;;;5064202;28;20189;-76
2023/06/26 02:24:47;;;;;;;7.30;6.70;;;17.90;1.00;;;;;;5058918;28;20197;-75
2023/06/26 02:27:12;;;;;;;8.38;6.95;;;17.70;52.80;;;;;;5060832;28;20197;-76
2023/06/26 02:29:39;;;;;;;7.50;6.80;;;17.70;99.90;;;;;;5050750;28;20208;-75
2023/06/26 02:32:05;;;;;;;7.35;6.63;;;17.60;99.90;;;;;;5059168;28;20190;-75
2023/06/26 02:34:31;;;;;;;10.73;7.07;;;17.60;99.90;;;;;;5062858;28;20537;-75
2023/06/26 02:36:58;;;;;;;7.43;6.28;;;17.60;99.90;;;;;;5064724;28;20210;-76
2023/06/26 02:39:24;;;;;;;7.78;6.80;;;17.60;99.90;;;;;;5062810;28;20271;-74
2023/06/26 02:41:49;;;;;;;9.70;6.28;;;17.60;99.90;;;;;;5063940;28;20669;-76
2023/06/26 02:44:15;;;;;;;6.78;6.07;;;17.60;38.40;;;;;;5054556;28;20185;-75
2023/06/26 02:46:41;;;;;;;6.85;6.25;;;17.60;1.00;;;;;;5057097;28;20289;-74
2023/06/26 02:49:07;;;;;;;6.70;6.07;;;17.60;33.50;;;;;;5058328;28;20227;-76
2023/06/26 02:51:33;;;;;;;8.00;6.70;;;17.50;1.00;;;;;;5058349;28;20236;-75
2023/06/26 02:53:59;;;;;;;7.07;6.38;;;17.60;16.20;;;;;;5058527;28;20219;-75
2023/06/26 02:56:28;;;;;;;9.35;6.82;;;17.70;1.00;;;;;;5054281;28;20666;-75
2023/06/26 02:58:54;;;;;;;9.60;6.40;;;17.60;1.00;;;;;;5055630;28;20201;-75
2023/06/26 03:01:20;;;;;;;7.20;6.38;;;17.60;1.00;;;;;;5057094;28;20640;-75
2023/06/26 03:03:46;;;;;;;7.78;6.07;;;17.60;1.00;;;;;;5053905;28;20221;-75
2023/06/26 03:06:12;;;;;;;8.02;6.35;;;17.60;1.00;;;;;;5059964;28;20205;-77
2023/06/26 03:08:39;;;;;;;7.78;6.00;;;17.60;1.00;;;;;;5056265;28;20241;-76
2023/06/26 03:11:05;;;;;;;9.75;6.50;;;17.70;1.00;;;;;;5039479;28;20186;-75
2023/06/26 03:13:32;;;;;;;8.68;5.72;;;17.50;1.00;;;;;;5057032;28;20177;-76
2023/06/26 03:15:58;;;;;;;7.32;5.95;;;17.60;1.00;;;;;;5052701;28;20210;-74
2023/06/26 03:18:23;;;;;;;8.23;6.28;;;17.60;1.00;;;;;;5054864;28;20560;-75
2023/06/26 03:20:49;;;;;;;9.63;6.53;;;17.60;1.00;;;;;;5057869;28;20182;-75
2023/06/26 03:23:15;;;;;;;9.32;5.70;;;17.60;1.00;;;;;;5048615;28;20190;-76
2023/06/26 03:25:40;;;;;;;7.88;5.95;;;17.60;1.00;;;;;;5055940;28;20213;-75
2023/06/26 03:28:06;;;;;;;9.30;6.05;;;17.70;1.00;;;;;;5051873;28;20826;-77
2023/06/26 03:30:31;;;;;;;7.75;6.47;;;17.70;99.90;;;;;;5053803;28;20617;-75
2023/06/26 03:32:57;;;;;;;8.88;6.95;;;17.70;99.90;;;;;;5053134;28;20176;-75
2023/06/26 03:35:23;;;;;;;6.72;6.13;;;17.70;99.90;;;;;;5048071;28;20276;-77
2023/06/26 03:37:49;;;;;;;8.20;6.50;;;17.60;1.00;;;;;;5050781;28;20205;-75
2023/06/26 03:40:15;;;;;;;8.32;6.38;;;17.70;1.00;;;;;;5050496;28;20202;-76
2023/06/26 03:42:42;;;;;;;8.38;6.70;;;17.80;1.00;;;;;;5057006;28;20283;-76
2023/06/26 03:45:07;;;;;;;7.05;6.32;;;17.90;99.90;;;;;;5054914;28;20239;-75
2023/06/26 03:47:33;;;;;;;7.68;6.45;;;18.00;99.90;;;;;;5055948;28;20246;-75
2023/06/26 03:49:59;;;;;;;8.07;6.18;;;18.10;99.90;;;;;;5047452;28;20182;-76
2023/06/26 03:52:24;;;;;;;8.05;6.55;;;18.10;99.90;;;;;;5047740;28;20321;-76
2023/06/26 03:54:50;;;;;;;10.05;6.78;;;18.10;99.90;;;;;;5057893;28;20586;-76
2023/06/26 03:57:15;;;;;;;12.60;7.55;;;18.10;99.90;;;;;;5056588;28;20216;-75
2023/06/26 03:59:41;;;;;;;9.45;7.28;;;18.10;99.90;;;;;;5051692;28;20747;-76
2023/06/26 04:02:07;;;;;;;8.07;6.85;;;18.10;99.90;;;;;;5046495;28;20232;-74
2023/06/26 04:04:32;;;;;;;7.35;6.72;;;18.10;99.90;;;;;;5057812;28;20186;-75
2023/06/26 04:06:59;;;;;;;6.68;5.95;;;18.10;99.90;;;;;;5048920;28;20343;-76
2023/06/26 04:09:25;;;;;;;7.13;5.90;;;18.10;99.90;;;;;;5057956;28;20296;-75
2023/06/26 04:11:51;;;;;;;7.75;6.20;;;18.10;99.90;;;;;;5047755;28;20685;-75
2023/06/26 04:14:16;;;;;;;10.25;6.85;;;18.10;99.90;;;;;;5050297;28;20217;-75
2023/06/26 04:16:43;;;;;;;6.53;5.57;;;18.10;99.90;;;;;;5053076;28;20680;-74
2023/06/26 04:19:10;;;;;;;6.35;5.78;;;18.10;99.90;;;;;;5054227;28;20265;-77
2023/06/26 04:21:35;;;;;;;7.15;6.30;;;18.20;99.90;;;;;;5050875;28;20182;-75
2023/06/26 04:24:01;;;;;;;8.35;5.80;;;18.30;99.90;;;;;;5050932;28;20240;-75
2023/06/26 04:26:27;;;;;;;6.50;5.90;;;18.40;99.90;;;;;;5049661;28;20217;-75
2023/06/26 04:28:54;;;;;;;6.43;5.65;;;18.70;99.90;;;;;;5051050;28;20212;-76
2023/06/26 04:31:20;;;;;;;6.22;5.43;;;18.50;21.60;;;;;;5050598;28;20178;-75
2023/06/26 04:33:50;;;;;;;7.07;5.55;;;18.60;1.00;;;;;;5057138;28;20236;-76
2023/06/26 04:36:19;;;;;;;6.97;5.40;;;18.60;1.00;;;;;;5051765;28;20293;-75
2023/06/26 04:38:45;;;;;;;5.57;5.07;;;18.70;1.00;;;;;;5052397;28;20182;-75
2023/06/26 04:41:10;;;;;;;6.28;5.60;;;18.70;1.00;;;;;;5056308;28;20239;-76
2023/06/26 04:43:36;;;;;;;7.35;5.35;;;18.70;1.00;;;;;;5052073;28;20606;-75
2023/06/26 04:46:04;;;;;;;8.57;6.40;;;18.80;1.00;;;;;;5054584;28;20256;-76
2023/06/26 04:48:30;;;;;;;6.50;5.90;;;18.90;1.00;;;;;;5049055;28;20217;-76
2023/06/26 04:50:56;;;;;;;7.93;5.68;;;19.00;1.00;;;;;;5050264;28;20542;-74
2023/06/26 04:53:23;;;;;;;7.55;5.68;;;19.00;1.00;;;;;;5052147;28;20235;-75
2023/06/26 04:55:52;;;;;;;7.45;5.40;;;19.10;1.00;;;;;;5036177;28;20200;-75
2023/06/26 04:58:19;;;;;;;6.97;5.65;;;19.20;1.00;;;;;;5053443;28;20190;-74
2023/06/26 05:00:45;;;;;;;6.50;5.38;;;20.00;1.00;;;;;;5055628;28;20185;-75
2023/06/26 05:03:16;;;;;;;6.18;5.35;;;21.50;99.90;;;;;;5053428;28;20190;-75
2023/06/26 05:05:42;;;;;;;5.35;4.72;;;22.60;15.00;;;;;;5048993;28;20245;-75
2023/06/26 05:08:14;;;;;;;5.40;4.65;;;23.80;1.00;;;;;;5052960;28;20252;-75
2023/06/26 05:10:40;;;;;;;7.18;4.88;;;24.80;1.00;;;;;;5053321;28;20235;-76
2023/06/26 05:13:06;;;;;;;4.75;4.35;;;25.40;1.00;;;;;;5050603;28;20807;-75
2023/06/26 05:15:31;;;;;;;4.90;4.40;;;26.30;1.00;;;;;;5052075;28;20193;-76
2023/06/26 05:17:57;;;;;;;5.00;4.30;;;27.00;1.00;;;;;;5052980;28;20221;-75
2023/06/26 05:20:22;;;;;;;4.85;4.45;;;27.50;1.00;;;;;;5036874;28;20228;-76
2023/06/26 05:22:49;;;;;;;4.93;4.43;;;28.10;1.00;;;;;;5045343;28;20182;-75
2023/06/26 05:25:15;;;;;;;5.10;4.10;;;28.40;1.00;;;;;;5051757;28;20186;-76
2023/06/26 05:27:41;;;;;;;5.95;4.35;;;28.90;1.00;;;;;;5054377;28;20196;-75
2023/06/26 05:30:07;;;;;;;4.53;4.10;;;29.30;99.90;;;;;;5056497;28;20185;-75
2023/06/26 05:32:36;;;;;;;5.38;4.57;;;29.70;99.90;;;;;;5053051;28;20264;-76
2023/06/26 05:37:31;;;;;;;5.32;4.47;;;30.30;99.90;;;;;;5042905;28;20231;-76
2023/06/26 05:39:57;;;;;;;4.60;4.30;;;30.70;99.90;;;;;;5044430;28;20268;-76
2023/06/26 05:42:22;;;;;;;5.55;4.15;;;31.30;99.90;;;;;;5044424;28;20264;-76
2023/06/26 05:44:48;;;;;;;4.18;3.88;;;31.20;99.90;;;;;;5044984;28;20637;-78
2023/06/26 05:47:14;;;;;;;5.32;4.00;;;31.70;99.90;;;;;;5043872;28;20190;-76
2023/06/26 05:49:39;;;;;;;4.25;3.70;;;32.50;99.90;;;;;;5044347;28;20210;-76
2023/06/26 05:52:05;;;;;;;4.15;3.45;;;32.20;99.90;;;;;;5044621;28;20553;-75
2023/06/26 05:54:31;;;;;;;4.72;4.25;;;32.70;99.90;;;;;;5043900;28;20177;-75
2023/06/26 05:57:00;;;;;;;4.70;3.60;;;33.30;99.90;;;;;;5043960;28;20686;-75
2023/06/26 05:59:27;;;;;;;6.22;3.95;;;33.60;99.90;;;;;;5044130;28;20185;-76
2023/06/26 06:01:53;;;;;;;3.80;3.40;;;34.00;99.90;;;;;;5044097;28;20189;-76
2023/06/26 06:04:18;;;;;;;4.43;3.53;;;34.10;99.90;;;;;;5043902;28;20185;-75
2023/06/26 06:06:44;;;;;;;4.80;3.60;;;35.00;99.90;;;;;;5043419;28;20599;-76
2023/06/26 06:09:09;;;;;;;4.57;3.90;;;35.30;99.90;;;;;;5043436;28;20205;-75
2023/06/26 06:11:35;;;;;;;4.57;4.18;;;35.60;99.90;;;;;;5043982;28;20174;-77
2023/06/26 06:14:01;;;;;;;4.25;3.78;;;35.80;99.90;;;;;;5043899;28;20186;-75
2023/06/26 06:16:29;;;;;;;4.28;3.90;;;35.60;99.90;;;;;;5043390;28;20213;-76
2023/06/26 06:18:54;;;;;;;5.40;4.07;;;35.60;99.90;;;;;;5026312;28;20193;-75
2023/06/26 06:21:20;;;;;;;9.18;4.07;;;35.50;99.90;;;;;;5048003;28;20193;-76
2023/06/26 06:23:46;;;;;;;5.10;4.00;;;35.40;99.90;;;;;;5029401;28;20209;-75
2023/06/26 06:26:12;;;;;;;5.25;4.18;;;35.70;99.90;;;;;;5047244;28;20205;-74
2023/06/26 06:28:38;;;;;;;7.07;4.32;;;35.30;99.90;;;;;;5047496;28;20841;-76
2023/06/26 06:31:04;;;;;;;5.75;3.85;;;35.00;99.90;;;;;;5047323;28;20193;-74
2023/06/26 06:33:30;;;;;;;6.13;3.97;;;35.80;99.90;;;;;;5047099;28;20190;-78
2023/06/26 06:35:55;;;;;;;5.90;3.85;;;36.00;99.90;;;;;;5046951;28;20225;-73
2023/06/26 06:38:21;;;;;;;4.75;4.03;;;36.00;99.90;;;;;;5047017;28;20194;-75
2023/06/26 06:40:46;;;;;;;3.90;3.60;;;36.30;99.90;;;;;;5047556;28;20224;-76
2023/06/26 06:43:12;;;;;;;3.95;3.65;;;35.60;99.90;;;;;;5047348;28;20217;-75
2023/06/26 06:45:38;;;;;;;4.00;3.70;;;36.60;99.90;;;;;;5047525;28;20205;-77
2023/06/26 06:48:04;;;;;;;4.97;3.88;;;37.40;99.90;;;;;;5045151;28;20644;-75
2023/06/26 06:50:30;;;;;;;3.95;3.65;;;37.70;99.90;;;;;;5033125;28;20194;-77
2023/06/26 06:52:56;;;;;;;4.20;3.80;;;36.00;99.90;;;;;;5046417;28;20177;-77
2023/06/26 06:55:22;;;;;;;4.25;3.95;;;35.20;99.90;;;;;;5046739;28;20755;-76
2023/06/26 06:57:48;;;;;;;4.68;4.38;;;34.20;99.90;;;;;;5046278;28;20240;-77
2023/06/26 07:00:14;;;;;;;4.60;4.10;;;32.30;99.90;;;;;;5029060;28;20185;-73
2023/06/26 07:02:44;;;;;;;4.32;4.00;;;32.20;99.90;;;;;;5047155;28;20718;-76
2023/06/26 07:05:10;;;;;;;4.95;4.55;;;31.90;99.90;;;;;;5046649;28;20205;-75
2023/06/26 07:07:37;;;;;;;7.35;4.03;;;31.20;99.90;;;;;;5046229;28;20169;-75
2023/06/26 07:10:13;;;;;;;5.20;4.00;;;31.70;99.90;;;;;;5046318;28;20178;-75
2023/06/26 07:12:39;;;;;;;5.75;3.92;;;33.10;99.90;;;;;;5046450;28;20178;-77
2023/06/26 07:15:06;;;;;;;4.95;4.55;;;32.90;99.90;;;;;;5046260;28;20201;-76
2023/06/26 07:17:33;;;;;;;4.90;4.50;;;33.30;99.90;;;;;;5045948;28;20174;-76
2023/06/26 07:19:59;;;;;;;4.70;4.35;;;33.40;99.90;;;;;;5046756;28;20204;-76
2023/06/26 07:22:25;;;;;;;5.82;4.28;;;33.90;99.90;;;;;;5046730;28;20193;-75
2023/06/26 07:24:51;;;;;;;4.78;4.38;;;32.60;99.90;;;;;;5046528;28;20178;-75
2023/06/26 07:27:18;;;;;;;4.78;4.47;;;31.90;99.90;;;;;;5045657;28;20184;-76
2023/06/26 07:29:44;;;;;;;5.68;4.90;;;31.10;99.90;;;;;;5045180;28;20293;-76
2023/06/26 07:32:10;;;;;;;4.38;4.05;;;30.70;99.90;;;;;;5026739;28;20716;-77
2023/06/26 07:34:35;;;;;;;5.32;4.55;;;30.40;99.90;;;;;;5045603;28;20182;-75
2023/06/26 07:37:01;;;;;;;5.05;4.13;;;30.60;99.90;;;;;;5039260;28;20214;-76
2023/06/26 07:39:26;;;;;;;5.30;4.80;;;30.40;99.90;;;;;;5043912;28;20186;-74
2023/06/26 07:41:52;;;;;;;5.20;4.70;;;29.50;99.90;;;;;;5044203;28;20533;-74
2023/06/26 07:44:18;;;;;;;4.70;4.30;;;29.70;99.90;;;;;;5038319;28;20193;-73
2023/06/26 07:46:44;;;;;;;5.40;4.90;;;29.80;99.90;;;;;;5042760;28;20209;-73
2023/06/26 07:49:10;;;;;;;4.40;4.10;;;30.10;99.90;;;;;;5045052;28;20610;-74
2023/06/26 07:51:36;;;;;;;5.22;4.78;;;30.00;99.90;;;;;;5044037;28;20224;-75
2023/06/26 07:54:02;;;;;;;7.13;5.10;;;29.60;99.90;;;;;;5042018;28;20194;-75
2023/06/26 07:56:27;;;;;;;4.72;4.25;;;29.40;99.90;;;;;;5043817;28;20212;-73
2023/06/26 07:58:53;;;;;;;4.57;4.28;;;29.80;99.90;;;;;;5027208;28;20696;-74
2023/06/26 08:01:18;;;;;;;4.82;4.43;;;29.80;99.90;;;;;;5045414;28;20679;-74
2023/06/26 08:03:44;;;;;;;5.43;5.03;;;29.90;99.90;;;;;;5044676;28;20198;-74
2023/06/26 08:06:10;;;;;;;5.00;4.60;;;30.10;99.90;;;;;;5044621;28;20198;-73
2023/06/26 08:08:37;;;;;;;4.47;4.18;;;30.00;99.90;;;;;;5042220;28;20649;-74
2023/06/26 08:11:02;;;;;;;5.25;4.78;;;30.20;99.90;;;;;;5043122;28;20209;-74
2023/06/26 08:13:28;;;;;;;5.70;4.93;;;30.30;99.90;;;;;;5042783;28;20269;-73
2023/06/26 08:15:54;;;;;;;5.50;5.00;;;30.50;99.90;;;;;;5044552;28;20209;-74
2023/06/26 08:18:20;;;;;;;5.57;5.15;;;30.50;99.90;;;;;;5044386;28;20189;-74
2023/06/26 08:20:46;;;;;;;5.28;4.88;;;30.70;99.90;;;;;;5045319;28;20182;-74
2023/06/26 08:23:11;;;;;;;4.88;4.47;;;30.70;99.90;;;;;;5042997;28;20686;-75
2023/06/26 08:25:37;;;;;;;5.28;4.88;;;30.70;99.90;;;;;;5044489;28;20208;-75
2023/06/26 08:28:03;;;;;;;5.35;4.85;;;30.60;99.90;;;;;;5041363;28;20206;-74
2023/06/26 08:30:28;;;;;;;5.72;5.30;;;30.50;99.90;;;;;;5022053;28;20260;-75
2023/06/26 08:32:57;;;;;;;5.40;5.00;;;30.20;99.90;;;;;;5039447;28;20194;-74
2023/06/26 08:35:23;;;;;;;6.13;5.38;;;29.80;99.90;;;;;;5043193;28;20280;-75
2023/06/26 08:37:49;;;;;;;6.10;5.50;;;29.60;99.90;;;;;;5043923;28;20221;-74
2023/06/26 08:40:21;;;;;;;5.20;4.70;;;29.30;99.90;;;;;;5040455;28;20191;-73
2023/06/26 08:42:46;;;;;;;5.40;5.00;;;29.20;99.90;;;;;;5037289;28;20222;-74
2023/06/26 08:45:12;;;;;;;5.75;5.25;;;29.20;99.90;;;;;;5042551;28;20574;-75
2023/06/26 08:47:39;;;;;;;5.57;5.07;;;29.20;99.90;;;;;;5038024;28;20178;-74
2023/06/26 08:50:11;;;;;;;5.85;5.07;;;28.90;99.90;;;;;;5039221;28;20194;-74
2023/06/26 08:52:45;;;;;;;6.30;4.75;;;28.80;99.90;;;;;;5041497;28;20186;-73
2023/06/26 08:55:15;;;;;;;5.65;5.05;;;28.80;99.90;;;;;;5042244;28;20206;-75
2023/06/26 08:57:40;;;;;;;5.95;5.40;;;28.90;99.90;;;;;;5043039;28;20197;-74
2023/06/26 09:00:08;;;;;;;5.78;5.20;;;28.90;99.90;;;;;;5044310;28;20189;-73
2023/06/26 09:02:36;;;;;;;5.65;5.15;;;28.70;99.90;;;;;;5043270;28;20231;-73
2023/06/26 09:05:02;;;;;;;5.68;5.20;;;28.50;99.90;;;;;;5043832;28;20641;-73
2023/06/26 09:07:28;;;;;;;5.78;5.28;;;28.40;99.90;;;;;;5043122;28;20178;-73
2023/06/26 09:09:54;;;;;;;5.50;5.10;;;28.20;99.90;;;;;;5043623;28;20284;-72
2023/06/26 09:12:21;;;;;;;5.38;4.97;;;28.20;99.90;;;;;;5043469;28;20186;-73
2023/06/26 09:14:47;;;;;;;5.63;5.13;;;28.30;99.90;;;;;;5043538;28;20178;-72
2023/06/26 09:17:15;;;;;;;5.47;5.03;;;28.20;99.90;;;;;;5041213;28;20289;-73
2023/06/26 09:19:44;;;;;;;6.05;5.45;;;28.20;99.90;;;;;;5043186;28;20193;-73
2023/06/26 09:22:14;;;;;;;5.95;5.35;;;28.10;99.90;;;;;;5043766;28;20186;-74
2023/06/26 09:24:42;;;;;;;5.80;5.20;;;28.20;99.90;;;;;;5043247;28;20183;-74
2023/06/26 09:27:07;;;;;;;5.93;5.32;;;28.40;99.90;;;;;;5039884;28;20280;-74
2023/06/26 09:29:33;;;;;;;5.38;4.88;;;28.50;99.90;;;;;;5040476;28;20538;-74
2023/06/26 09:31:59;;;;;;;6.03;5.32;;;28.70;99.90;;;;;;5044166;28;20756;-75
2023/06/26 09:34:32;;;;;;;5.55;5.05;;;28.70;99.90;;;;;;5043420;28;20186;-75
2023/06/26 09:37:02;;;;;;;5.25;4.85;;;28.40;99.90;;;;;;5042999;28;20783;-74
2023/06/26 09:39:30;;;;;;;5.55;5.10;;;28.60;99.90;;;;;;5043353;28;20762;-74
2023/06/26 09:41:57;;;;;;;5.97;5.45;;;28.70;99.90;;;;;;5044001;28;21264;-74
2023/06/26 09:44:23;;;;;;;5.60;5.10;;;28.60;99.90;;;;;;5043049;28;20182;-74
2023/06/26 09:46:49;;;;;;;5.90;5.30;;;28.70;99.90;;;;;;5025430;28;20202;-74
2023/06/26 09:49:15;;;;;;;5.55;5.05;;;28.60;99.90;;;;;;5043157;28;20214;-74
2023/06/26 09:51:42;;;;;;;5.78;5.18;;;28.50;99.90;;;;;;5043732;28;20174;-73
2023/06/26 09:54:09;;;;;;;5.80;5.40;;;28.50;99.90;;;;;;5024294;28;20182;-74
2023/06/26 09:56:35;;;;;;;6.53;5.93;;;28.70;99.90;;;;;;5028611;28;20206;-74
2023/06/26 09:59:03;;;;;;;5.50;5.10;;;28.90;99.90;;;;;;5047636;28;20240;-75
2023/06/26 10:01:30;;;;;;;6.25;5.75;;;28.90;99.90;;;;;;5043332;28;20185;-73
2023/06/26 10:03:57;;;;;;;5.60;5.10;;;29.20;99.90;;;;;;5029140;28;20186;-74
2023/06/26 10:06:30;;;;;;;5.93;5.32;;;29.30;99.90;;;;;;5028581;28;20201;-74
2023/06/26 10:08:58;;;;;;;5.95;5.40;;;29.40;99.90;;;;;;5047576;28;20206;-74
2023/06/26 10:11:27;;;;;;;5.50;5.10;;;29.50;99.90;;;;;;5046983;28;20273;-74
2023/06/26 10:13:54;;;;;;;6.30;5.80;;;29.50;99.90;;;;;;5029202;28;20181;-73
2023/06/26 10:16:32;;;;;;;6.53;5.88;;;29.40;99.90;;;;;;5046304;28;20224;-73
2023/06/26 10:19:06;;;;;;;6.28;5.78;;;29.30;99.90;;;;;;5046941;28;20188;-74
2023/06/26 10:21:34;;;;;;;6.20;5.80;;;29.20;99.90;;;;;;5046867;28;21134;-73
2023/06/26 10:24:02;;;;;;;6.97;5.35;;;29.20;99.90;;;;;;5046994;28;20256;-74
2023/06/26 10:26:29;;;;;;;6.10;5.60;;;29.10;99.90;;;;;;5042838;28;20238;-74
2023/06/26 10:28:57;;;;;;;6.15;5.65;;;28.90;99.90;;;;;;5046769;28;20209;-74
2023/06/26 10:31:26;;;;;;;6.80;6.13;;;28.90;99.90;;;;;;5029173;28;20182;-78
2023/06/26 10:33:52;;;;;;;7.47;6.80;;;28.70;99.90;;;;;;5047623;28;20217;-75
2023/06/26 10:36:21;;;;;;;6.57;5.95;;;28.80;99.90;;;;;;5046623;28;20245;-76
2023/06/26 10:38:57;;;;;;;6.63;6.03;;;28.80;99.90;;;;;;5046920;28;20186;-78
2023/06/26 10:41:24;;;;;;;8.93;6.75;;;29.10;99.90;;;;;;5046584;28;20197;-76
2023/06/26 10:44:05;;;;;;;7.63;6.55;;;29.10;99.90;;;;;;5034714;28;20662;-75
2023/06/26 10:46:47;;;;;;;7.35;6.70;;;29.30;99.90;;;;;;5044836;28;20201;-74
2023/06/26 10:49:13;;;;;;;7.07;6.38;;;29.40;99.90;;;;;;5045101;28;20689;-74
2023/06/26 10:51:48;;;;;;;6.90;6.30;;;29.60;99.90;;;;;;5026687;28;20242;-76
2023/06/26 10:54:16;;;;;;;7.40;6.50;;;29.60;99.90;;;;;;5026367;28;21163;-75
2023/06/26 10:56:56;;;;;;;7.43;6.63;;;29.30;99.90;;;;;;5044376;28;20222;-76
2023/06/26 10:59:24;;;;;;;7.78;7.07;;;29.20;99.90;;;;;;5046044;28;20243;-73
2023/06/26 11:02:00;;;;;;;7.88;7.28;;;28.90;99.90;;;;;;5046425;28;20541;-73
2023/06/26 11:04:49;;;;;;;8.35;7.47;;;28.80;99.90;;;;;;5045585;28;20193;-74
2023/06/26 11:07:23;;;;;;;13.50;7.50;;;28.60;99.90;;;;;;5025930;28;20190;-74
2023/06/26 11:10:01;;;;;;;8.02;7.22;;;28.50;99.90;;;;;;5045433;28;20249;-74
2023/06/26 11:12:44;;;;;;;8.10;7.30;;;28.40;99.90;;;;;;5045935;28;20587;-76
2023/06/26 11:15:18;;;;;;;7.95;7.15;;;28.20;99.90;;;;;;5028003;28;20655;-76
2023/06/26 11:17:44;;;;;;;9.13;7.30;;;27.90;99.90;;;;;;5045165;28;20169;-76
2023/06/26 11:20:15;;;;;;;8.23;7.43;;;27.80;99.90;;;;;;5046591;28;20541;-75
2023/06/26 11:22:42;;;;;;;7.93;7.22;;;27.80;99.90;;;;;;5046586;28;20171;-75
2023/06/26 11:25:09;;;;;;;7.55;6.85;;;27.90;99.90;;;;;;5046852;28;20202;-75
2023/06/26 11:27:38;;;;;;;11.50;7.63;;;27.90;99.90;;;;;;5027203;28;20957;-74
2023/06/26 11:30:08;;;;;;;7.68;6.88;;;27.60;99.90;;;;;;5045335;28;20202;-75
2023/06/26 11:32:36;;;;;;;8.10;7.40;;;27.10;99.90;;;;;;5045594;28;20186;-77
2023/06/26 11:35:02;;;;;;;7.80;7.05;;;27.00;99.90;;;;;;5046062;28;20182;-75
2023/06/26 11:37:28;;;;;;;9.52;6.85;;;27.00;99.90;;;;;;5045761;28;20220;-75
2023/06/26 11:39:53;;;;;;;9.43;7.22;;;27.30;99.90;;;;;;5045881;28;20213;-73
2023/06/26 11:42:23;;;;;;;12.82;8.38;;;27.50;99.90;;;;;;5045957;28;20221;-75
2023/06/26 11:44:49;;;;;;;9.40;8.50;;;27.50;99.90;;;;;;5046216;28;20265;-75
2023/06/26 11:47:16;;;;;;;9.75;8.73;;;27.40;99.90;;;;;;5045104;28;20284;-73
2023/06/26 11:49:46;;;;;;;9.85;8.90;;;27.20;99.90;;;;;;5045195;28;20309;-74
2023/06/26 11:52:13;;;;;;;10.73;9.00;;;26.70;99.90;;;;;;5045084;28;20210;-75
2023/06/26 11:54:39;;;;;;;11.27;10.02;;;26.60;99.90;;;;;;5045587;28;20236;-73
2023/06/26 11:57:05;;;;;;;10.45;9.45;;;26.40;99.90;;;;;;5044259;28;20210;-75
2023/06/26 11:59:38;;;;;;;9.93;8.98;;;26.00;99.90;;;;;;5045400;28;20190;-73
2023/06/26 12:02:08;;;;;;;9.15;8.25;;;25.80;99.90;;;;;;5044577;28;20194;-75
2023/06/26 12:04:37;;;;;;;8.85;7.95;;;25.80;99.90;;;;;;5044736;28;20182;-76
2023/06/26 12:07:05;;;;;;;7.90;7.15;;;25.40;99.90;;;;;;5044702;28;20770;-75
2023/06/26 12:09:33;;;;;;;7.45;6.68;;;25.30;99.90;;;;;;5045186;28;20202;-74
2023/06/26 12:11:59;;;;;;;6.68;6.07;;;25.40;99.90;;;;;;5045656;28;20274;-78
2023/06/26 12:14:25;;;;;;;8.27;6.30;;;25.80;99.90;;;;;;5045618;28;20182;-73
2023/06/26 12:16:52;;;;;;;6.72;6.13;;;26.10;99.90;;;;;;5045203;28;20564;-77
2023/06/26 12:19:25;;;;;;;6.82;5.15;;;26.40;99.90;;;;;;5044667;28;20527;-76
2023/06/26 12:21:52;;;;;;;6.55;5.50;;;26.60;99.90;;;;;;5044841;28;20284;-75
2023/06/26 12:24:23;;;;;;;5.20;4.70;;;26.70;99.90;;;;;;5026874;28;20206;-74
2023/06/26 12:26:56;;;;;;;5.22;4.72;;;26.70;99.90;;;;;;5044531;28;20209;-74
2023/06/26 12:29:31;;;;;;;5.55;5.05;;;26.50;99.90;;;;;;5045636;28;20186;-75
2023/06/26 12:31:56;;;;;;;6.13;5.53;;;26.00;99.90;;;;;;5044484;28;20192;-75
2023/06/26 12:34:33;;;;;;;9.10;5.70;;;25.70;99.90;;;;;;5044976;28;20192;-75
2023/06/26 12:37:02;;;;;;;7.65;5.30;;;24.90;99.90;;;;;;5044296;28;20228;-75
2023/06/26 12:39:28;;;;;;;6.55;5.78;;;24.50;99.90;;;;;;5043812;28;20186;-75
2023/06/26 12:41:55;;;;;;;8.68;6.47;;;24.20;99.90;;;;;;5044428;28;20700;-75
2023/06/26 12:44:22;;;;;;;9.70;7.47;;;24.10;99.90;;;;;;5044320;28;20200;-75
2023/06/26 12:46:49;;;;;;;9.05;7.65;;;23.90;1.00;;;;;;5043347;28;20194;-75
2023/06/26 12:49:15;;;;;;;10.10;8.05;;;23.80;1.00;;;;;;5043970;28;20194;-75
2023/06/26 12:51:42;;;;;;;12.10;8.80;;;23.60;1.00;;;;;;5044392;28;20185;-75
2023/06/26 12:54:08;;;;;;;12.43;8.75;;;23.50;1.00;;;;;;5044081;28;20273;-75